sensor_id;sensor_type;location;lat;lon;timestamp;pressure;altitude;pressure_sealevel;temperature;humidity
35489;BME280;21602;55.670;37.578;2023-10-08T00:00:45;95888.97;;;6.60;85.81
35489;BME280;21602;55.670;37.578;2023-10-08T00:03:13;95891.91;;;6.59;85.95
35489;BME280;21602;55.670;37.578;2023-10-08T00:05:41;95894.38;;;6.55;85.53
35489;BME280;21602;55.670;37.578;2023-10-08T00:08:07;95897.16;;;6.45;84.57
35489;BME280;21602;55.670;37.578;2023-10-08T00:10:44;95897.16;;;6.45;84.48
35489;BME280;21602;55.670;37.578;2023-10-08T00:13:14;95901.50;;;6.41;84.40
35489;BME280;21602;55.670;37.578;2023-10-08T00:15:44;95887.34;;;6.46;84.76
35489;BME280;21602;55.670;37.578;2023-10-08T00:18:19;95886.47;;;6.50;84.45
35489;BME280;21602;55.670;37.578;2023-10-08T00:20:45;95897.16;;;6.45;84.35
35489;BME280;21602;55.670;37.578;2023-10-08T00:23:29;95897.34;;;6.35;83.38
35489;BME280;21602;55.670;37.578;2023-10-08T00:25:55;95894.81;;;6.44;84.25
35489;BME280;21602;55.670;37.578;2023-10-08T00:28:23;95899.53;;;6.47;84.01
35489;BME280;21602;55.670;37.578;2023-10-08T00:30:50;95910.72;;;6.44;83.44
35489;BME280;21602;55.670;37.578;2023-10-08T00:33:19;95915.53;;;6.41;82.67
35489;BME280;21602;55.670;37.578;2023-10-08T00:35:45;95912.09;;;6.41;82.05
35489;BME280;21602;55.670;37.578;2023-10-08T00:38:13;95925.41;;;6.36;81.60
35489;BME280;21602;55.670;37.578;2023-10-08T00:40:46;95907.16;;;6.34;81.78
35489;BME280;21602;55.670;37.578;2023-10-08T00:43:32;95913.16;;;6.40;82.00
35489;BME280;21602;55.670;37.578;2023-10-08T00:46:02;95899.72;;;6.36;82.03
35489;BME280;21602;55.670;37.578;2023-10-08T00:48:30;95895.78;;;6.34;81.74
35489;BME280;21602;55.670;37.578;2023-10-08T00:51:04;95913.63;;;6.28;81.17
35489;BME280;21602;55.670;37.578;2023-10-08T00:54:01;95894.22;;;6.33;81.31
35489;BME280;21602;55.670;37.578;2023-10-08T00:56:46;95904.81;;;6.33;81.75
35489;BME280;21602;55.670;37.578;2023-10-08T00:59:12;95901.25;;;6.24;80.78
35489;BME280;21602;55.670;37.578;2023-10-08T01:01:39;95888.41;;;6.31;81.65
35489;BME280;21602;55.670;37.578;2023-10-08T01:04:05;95897.56;;;6.38;81.53
35489;BME280;21602;55.670;37.578;2023-10-08T01:06:38;95902.63;;;6.35;80.81
35489;BME280;21602;55.670;37.578;2023-10-08T01:09:05;95900.28;;;6.33;80.99
35489;BME280;21602;55.670;37.578;2023-10-08T01:11:44;95889.78;;;6.28;81.12
35489;BME280;21602;55.670;37.578;2023-10-08T01:14:19;95878.50;;;6.23;80.97
35489;BME280;21602;55.670;37.578;2023-10-08T01:16:48;95892.22;;;6.25;81.20
35489;BME280;21602;55.670;37.578;2023-10-08T01:19:19;95870.81;;;6.21;80.72
35489;BME280;21602;55.670;37.578;2023-10-08T01:21:47;95908.09;;;6.25;80.65
35489;BME280;21602;55.670;37.578;2023-10-08T01:24:13;95910.47;;;6.26;80.23
35489;BME280;21602;55.670;37.578;2023-10-08T01:26:42;95911.63;;;6.20;80.33
35489;BME280;21602;55.670;37.578;2023-10-08T01:29:12;95893.53;;;6.08;80.33
35489;BME280;21602;55.670;37.578;2023-10-08T01:31:47;95899.50;;;6.00;80.65
35489;BME280;21602;55.670;37.578;2023-10-08T01:34:20;95909.00;;;6.01;80.80
35489;BME280;21602;55.670;37.578;2023-10-08T01:36:52;95909.50;;;6.03;80.88
35489;BME280;21602;55.670;37.578;2023-10-08T01:39:18;95904.28;;;5.98;80.27
35489;BME280;21602;55.670;37.578;2023-10-08T01:41:45;95908.00;;;5.97;80.45
35489;BME280;21602;55.670;37.578;2023-10-08T01:44:13;95908.59;;;5.94;80.30
35489;BME280;21602;55.670;37.578;2023-10-08T01:46:38;95899.34;;;5.92;79.90
35489;BME280;21602;55.670;37.578;2023-10-08T01:49:07;95912.28;;;5.93;79.90
35489;BME280;21602;55.670;37.578;2023-10-08T01:51:47;95897.41;;;5.97;79.99
35489;BME280;21602;55.670;37.578;2023-10-08T01:54:13;95900.56;;;5.99;79.74
35489;BME280;21602;55.670;37.578;2023-10-08T01:56:43;95902.22;;;5.95;79.71
35489;BME280;21602;55.670;37.578;2023-10-08T01:59:11;95893.72;;;5.98;79.57
35489;BME280;21602;55.670;37.578;2023-10-08T02:01:43;95895.06;;;5.96;79.50
35489;BME280;21602;55.670;37.578;2023-10-08T02:04:11;95877.09;;;5.93;79.54
35489;BME280;21602;55.670;37.578;2023-10-08T02:06:38;95910.94;;;5.96;79.57
35489;BME280;21602;55.670;37.578;2023-10-08T02:09:07;95908.41;;;5.85;79.11
35489;BME280;21602;55.670;37.578;2023-10-08T02:11:54;95904.38;;;5.88;79.27
35489;BME280;21602;55.670;37.578;2023-10-08T02:14:21;95902.13;;;5.81;79.12
35489;BME280;21602;55.670;37.578;2023-10-08T02:16:49;95891.09;;;5.74;79.27
35489;BME280;21602;55.670;37.578;2023-10-08T02:19:22;95907.25;;;5.73;79.23
35489;BME280;21602;55.670;37.578;2023-10-08T02:21:56;95899.63;;;5.71;79.13
35489;BME280;21602;55.670;37.578;2023-10-08T02:24:24;95898.84;;;5.71;79.18
35489;BME280;21602;55.670;37.578;2023-10-08T02:26:54;95893.31;;;5.67;78.51
35489;BME280;21602;55.670;37.578;2023-10-08T02:29:25;95898.63;;;5.67;78.63
35489;BME280;21602;55.670;37.578;2023-10-08T02:31:53;95894.97;;;5.63;78.37
35489;BME280;21602;55.670;37.578;2023-10-08T02:34:19;95902.34;;;5.66;78.50
35489;BME280;21602;55.670;37.578;2023-10-08T02:36:45;95892.84;;;5.65;78.32
35489;BME280;21602;55.670;37.578;2023-10-08T02:39:13;95895.25;;;5.61;77.98
35489;BME280;21602;55.670;37.578;2023-10-08T02:41:40;95902.69;;;5.59;78.05
35489;BME280;21602;55.670;37.578;2023-10-08T02:44:13;95891.53;;;5.62;78.52
35489;BME280;21602;55.670;37.578;2023-10-08T02:46:43;95912.63;;;5.68;78.71
35489;BME280;21602;55.670;37.578;2023-10-08T02:49:15;95944.00;;;5.55;79.64
35489;BME280;21602;55.670;37.578;2023-10-08T02:51:53;95909.19;;;5.48;80.40
35489;BME280;21602;55.670;37.578;2023-10-08T02:54:22;95914.69;;;5.33;81.94
35489;BME280;21602;55.670;37.578;2023-10-08T02:56:58;95915.91;;;5.17;82.80
35489;BME280;21602;55.670;37.578;2023-10-08T02:59:30;95907.16;;;4.97;85.10
35489;BME280;21602;55.670;37.578;2023-10-08T03:02:09;95905.41;;;4.87;86.43
35489;BME280;21602;55.670;37.578;2023-10-08T03:04:41;95898.25;;;4.88;86.33
35489;BME280;21602;55.670;37.578;2023-10-08T03:07:14;95913.06;;;4.89;86.59
35489;BME280;21602;55.670;37.578;2023-10-08T03:09:59;95900.91;;;4.88;86.06
35489;BME280;21602;55.670;37.578;2023-10-08T03:12:35;95897.69;;;4.91;86.57
35489;BME280;21602;55.670;37.578;2023-10-08T03:15:05;95900.06;;;4.93;86.05
35489;BME280;21602;55.670;37.578;2023-10-08T03:17:37;95906.34;;;4.97;85.54
35489;BME280;21602;55.670;37.578;2023-10-08T03:20:18;95903.66;;;5.02;85.57
35489;BME280;21602;55.670;37.578;2023-10-08T03:22:59;95896.50;;;5.02;85.43
35489;BME280;21602;55.670;37.578;2023-10-08T03:25:28;95901.78;;;5.02;85.79
35489;BME280;21602;55.670;37.578;2023-10-08T03:27:54;95895.50;;;4.98;85.10
35489;BME280;21602;55.670;37.578;2023-10-08T03:30:20;95905.03;;;4.99;84.65
35489;BME280;21602;55.670;37.578;2023-10-08T03:32:47;95896.25;;;5.04;85.20
35489;BME280;21602;55.670;37.578;2023-10-08T03:35:21;95885.44;;;5.00;85.65
35489;BME280;21602;55.670;37.578;2023-10-08T03:37:54;95905.22;;;5.03;85.46
35489;BME280;21602;55.670;37.578;2023-10-08T03:40:40;95910.81;;;5.01;85.45
35489;BME280;21602;55.670;37.578;2023-10-08T03:43:09;95908.22;;;4.96;85.44
35489;BME280;21602;55.670;37.578;2023-10-08T03:45:55;95900.59;;;4.95;84.98
35489;BME280;21602;55.670;37.578;2023-10-08T03:48:25;95900.28;;;4.96;84.66
35489;BME280;21602;55.670;37.578;2023-10-08T03:50:51;95899.75;;;4.99;85.03
35489;BME280;21602;55.670;37.578;2023-10-08T03:53:32;95916.81;;;5.07;85.23
35489;BME280;21602;55.670;37.578;2023-10-08T03:56:08;95913.38;;;5.06;85.10
35489;BME280;21602;55.670;37.578;2023-10-08T03:58:37;95887.53;;;5.03;85.11
35489;BME280;21602;55.670;37.578;2023-10-08T04:01:10;95909.28;;;4.95;85.60
35489;BME280;21602;55.670;37.578;2023-10-08T04:03:45;95906.72;;;4.90;85.94
35489;BME280;21602;55.670;37.578;2023-10-08T04:06:21;95904.13;;;4.85;86.74
35489;BME280;21602;55.670;37.578;2023-10-08T04:09:05;95917.34;;;4.85;86.80
35489;BME280;21602;55.670;37.578;2023-10-08T04:11:35;95904.44;;;4.78;87.13
35489;BME280;21602;55.670;37.578;2023-10-08T04:14:04;95906.59;;;4.76;87.04
35489;BME280;21602;55.670;37.578;2023-10-08T04:16:32;95902.19;;;4.67;87.15
35489;BME280;21602;55.670;37.578;2023-10-08T04:19:03;95906.59;;;4.76;87.08
35489;BME280;21602;55.670;37.578;2023-10-08T04:21:30;95889.47;;;4.69;87.64
35489;BME280;21602;55.670;37.578;2023-10-08T04:24:00;95917.25;;;4.66;86.86
35489;BME280;21602;55.670;37.578;2023-10-08T04:26:34;95896.38;;;4.65;86.90
35489;BME280;21602;55.670;37.578;2023-10-08T04:29:01;95900.28;;;4.72;87.20
35489;BME280;21602;55.670;37.578;2023-10-08T04:31:33;95913.19;;;4.74;86.37
35489;BME280;21602;55.670;37.578;2023-10-08T04:34:09;95911.63;;;4.73;86.07
35489;BME280;21602;55.670;37.578;2023-10-08T04:36:45;95904.72;;;4.77;85.84
35489;BME280;21602;55.670;37.578;2023-10-08T04:39:14;95903.09;;;4.81;85.69
35489;BME280;21602;55.670;37.578;2023-10-08T04:41:47;95901.53;;;4.80;85.04
35489;BME280;21602;55.670;37.578;2023-10-08T04:44:19;95898.38;;;4.78;84.76
35489;BME280;21602;55.670;37.578;2023-10-08T04:46:47;95893.59;;;4.80;84.41
35489;BME280;21602;55.670;37.578;2023-10-08T04:49:18;95905.63;;;4.91;84.32
35489;BME280;21602;55.670;37.578;2023-10-08T04:52:06;95929.38;;;4.96;83.98
35489;BME280;21602;55.670;37.578;2023-10-08T04:54:44;95894.78;;;4.93;83.44
35489;BME280;21602;55.670;37.578;2023-10-08T04:57:21;95901.63;;;4.94;82.68
35489;BME280;21602;55.670;37.578;2023-10-08T04:59:52;95903.22;;;4.95;82.63
35489;BME280;21602;55.670;37.578;2023-10-08T05:02:23;95901.38;;;4.95;82.74
35489;BME280;21602;55.670;37.578;2023-10-08T05:05:07;95887.63;;;4.93;82.35
35489;BME280;21602;55.670;37.578;2023-10-08T05:07:35;95920.88;;;4.99;81.95
35489;BME280;21602;55.670;37.578;2023-10-08T05:10:14;95908.16;;;5.01;82.30
35489;BME280;21602;55.670;37.578;2023-10-08T05:12:52;95907.38;;;5.01;82.28
35489;BME280;21602;55.670;37.578;2023-10-08T05:15:31;95921.38;;;5.01;82.69
35489;BME280;21602;55.670;37.578;2023-10-08T05:18:23;95921.72;;;4.95;82.55
35489;BME280;21602;55.670;37.578;2023-10-08T05:21:03;95916.75;;;4.88;82.85
35489;BME280;21602;55.670;37.578;2023-10-08T05:23:49;95921.00;;;4.89;82.95
35489;BME280;21602;55.670;37.578;2023-10-08T05:26:37;95942.34;;;4.93;83.10
35489;BME280;21602;55.670;37.578;2023-10-08T05:29:09;95918.78;;;4.96;83.35
35489;BME280;21602;55.670;37.578;2023-10-08T05:31:53;95948.41;;;4.93;82.75
35489;BME280;21602;55.670;37.578;2023-10-08T05:34:40;95920.41;;;4.92;82.62
35489;BME280;21602;55.670;37.578;2023-10-08T05:37:17;95930.44;;;4.95;82.83
35489;BME280;21602;55.670;37.578;2023-10-08T05:40:03;95935.97;;;4.99;82.54
35489;BME280;21602;55.670;37.578;2023-10-08T05:42:38;95937.13;;;4.87;81.52
35489;BME280;21602;55.670;37.578;2023-10-08T05:45:12;95922.50;;;4.95;81.24
35489;BME280;21602;55.670;37.578;2023-10-08T05:47:38;95925.38;;;4.99;80.87
35489;BME280;21602;55.670;37.578;2023-10-08T05:50:07;95923.00;;;4.97;80.77
35489;BME280;21602;55.670;37.578;2023-10-08T05:52:44;95935.16;;;4.98;80.89
35489;BME280;21602;55.670;37.578;2023-10-08T05:55:31;95956.09;;;4.95;80.47
35489;BME280;21602;55.670;37.578;2023-10-08T05:58:06;95934.16;;;4.94;80.34
35489;BME280;21602;55.670;37.578;2023-10-08T06:00:47;95934.72;;;4.91;80.54
35489;BME280;21602;55.670;37.578;2023-10-08T06:03:17;95933.34;;;4.94;81.13
35489;BME280;21602;55.670;37.578;2023-10-08T06:06:08;95936.41;;;5.06;80.91
35489;BME280;21602;55.670;37.578;2023-10-08T06:08:54;95928.41;;;5.11;80.55
35489;BME280;21602;55.670;37.578;2023-10-08T06:11:40;95941.34;;;5.12;80.64
35489;BME280;21602;55.670;37.578;2023-10-08T06:14:09;95948.28;;;5.08;80.48
35489;BME280;21602;55.670;37.578;2023-10-08T06:16:53;95960.53;;;4.99;80.38
35489;BME280;21602;55.670;37.578;2023-10-08T06:19:42;95950.97;;;5.03;80.13
35489;BME280;21602;55.670;37.578;2023-10-08T06:22:09;95966.31;;;5.01;79.95
35489;BME280;21602;55.670;37.578;2023-10-08T06:24:34;95962.41;;;4.99;80.38
35489;BME280;21602;55.670;37.578;2023-10-08T06:27:04;95974.53;;;5.00;79.87
35489;BME280;21602;55.670;37.578;2023-10-08T06:29:32;95968.91;;;5.06;80.21
35489;BME280;21602;55.670;37.578;2023-10-08T06:31:58;95961.69;;;5.12;80.01
35489;BME280;21602;55.670;37.578;2023-10-08T06:34:32;95956.81;;;5.24;79.31
35489;BME280;21602;55.670;37.578;2023-10-08T06:36:59;95961.81;;;5.26;78.26
35489;BME280;21602;55.670;37.578;2023-10-08T06:39:27;95950.34;;;5.11;76.90
35489;BME280;21602;55.670;37.578;2023-10-08T06:42:00;95939.22;;;5.14;77.90
35489;BME280;21602;55.670;37.578;2023-10-08T06:44:55;95952.81;;;5.27;77.43
35489;BME280;21602;55.670;37.578;2023-10-08T06:47:23;95945.56;;;5.37;77.47
35489;BME280;21602;55.670;37.578;2023-10-08T06:49:49;95959.91;;;5.31;76.40
35489;BME280;21602;55.670;37.578;2023-10-08T06:52:17;95971.84;;;5.29;76.95
35489;BME280;21602;55.670;37.578;2023-10-08T06:54:45;95969.25;;;5.24;76.60
35489;BME280;21602;55.670;37.578;2023-10-08T06:57:12;95960.19;;;5.30;77.03
35489;BME280;21602;55.670;37.578;2023-10-08T06:59:40;95969.19;;;5.29;76.34
35489;BME280;21602;55.670;37.578;2023-10-08T07:02:08;95981.41;;;5.25;77.08
35489;BME280;21602;55.670;37.578;2023-10-08T07:04:35;95969.81;;;5.21;76.88
35489;BME280;21602;55.670;37.578;2023-10-08T07:07:03;95968.78;;;5.17;77.05
35489;BME280;21602;55.670;37.578;2023-10-08T07:09:34;95974.09;;;5.17;76.98
35489;BME280;21602;55.670;37.578;2023-10-08T07:12:05;95977.34;;;5.08;76.41
35489;BME280;21602;55.670;37.578;2023-10-08T07:14:41;95991.56;;;5.12;76.94
35489;BME280;21602;55.670;37.578;2023-10-08T07:17:08;95981.84;;;5.08;76.94
35489;BME280;21602;55.670;37.578;2023-10-08T07:19:34;95993.94;;;5.14;76.93
35489;BME280;21602;55.670;37.578;2023-10-08T07:22:04;95983.09;;;5.16;76.12
35489;BME280;21602;55.670;37.578;2023-10-08T07:24:44;95989.16;;;5.16;75.79
35489;BME280;21602;55.670;37.578;2023-10-08T07:27:17;95988.06;;;5.22;75.91
35489;BME280;21602;55.670;37.578;2023-10-08T07:29:48;95985.69;;;5.21;75.38
35489;BME280;21602;55.670;37.578;2023-10-08T07:32:15;95984.88;;;5.20;75.48
35489;BME280;21602;55.670;37.578;2023-10-08T07:34:45;95998.41;;;5.19;74.97
35489;BME280;21602;55.670;37.578;2023-10-08T07:37:14;95983.63;;;5.18;74.72
35489;BME280;21602;55.670;37.578;2023-10-08T07:39:41;95967.69;;;5.23;74.54
35489;BME280;21602;55.670;37.578;2023-10-08T07:42:12;95978.22;;;5.28;74.61
35489;BME280;21602;55.670;37.578;2023-10-08T07:44:39;95973.94;;;5.32;74.54
35489;BME280;21602;55.670;37.578;2023-10-08T07:47:06;95989.28;;;5.30;73.57
35489;BME280;21602;55.670;37.578;2023-10-08T07:49:40;96008.88;;;5.29;73.31
35489;BME280;21602;55.670;37.578;2023-10-08T07:52:10;95982.47;;;5.24;72.81
35489;BME280;21602;55.670;37.578;2023-10-08T07:54:41;95995.69;;;5.24;73.23
35489;BME280;21602;55.670;37.578;2023-10-08T07:57:07;95989.94;;;5.17;72.40
35489;BME280;21602;55.670;37.578;2023-10-08T07:59:39;95996.84;;;5.18;72.54
35489;BME280;21602;55.670;37.578;2023-10-08T08:02:21;96001.09;;;5.13;72.44
35489;BME280;21602;55.670;37.578;2023-10-08T08:04:53;96018.44;;;5.25;72.71
35489;BME280;21602;55.670;37.578;2023-10-08T08:07:20;96006.47;;;5.32;72.47
35489;BME280;21602;55.670;37.578;2023-10-08T08:09:48;96017.81;;;5.33;72.33
35489;BME280;21602;55.670;37.578;2023-10-08T08:12:21;96002.28;;;5.26;71.95
35489;BME280;21602;55.670;37.578;2023-10-08T08:14:50;96013.59;;;5.32;72.09
35489;BME280;21602;55.670;37.578;2023-10-08T08:17:17;96015.34;;;5.18;71.75
35489;BME280;21602;55.670;37.578;2023-10-08T08:19:45;96035.91;;;5.21;71.67
35489;BME280;21602;55.670;37.578;2023-10-08T08:22:21;96031.16;;;5.23;71.50
35489;BME280;21602;55.670;37.578;2023-10-08T08:24:50;96010.69;;;5.33;71.22
35489;BME280;21602;55.670;37.578;2023-10-08T08:27:32;96028.59;;;5.42;70.90
35489;BME280;21602;55.670;37.578;2023-10-08T08:29:58;96022.88;;;5.53;70.98
35489;BME280;21602;55.670;37.578;2023-10-08T08:32:37;96029.13;;;5.62;69.99
35489;BME280;21602;55.670;37.578;2023-10-08T08:35:09;96022.56;;;5.79;70.02
35489;BME280;21602;55.670;37.578;2023-10-08T08:37:36;95993.66;;;5.63;69.04
35489;BME280;21602;55.670;37.578;2023-10-08T08:40:05;96022.94;;;5.72;69.12
35489;BME280;21602;55.670;37.578;2023-10-08T08:42:51;96020.22;;;5.77;69.17
35489;BME280;21602;55.670;37.578;2023-10-08T08:45:24;96032.09;;;5.80;68.63
35489;BME280;21602;55.670;37.578;2023-10-08T08:47:50;96033.97;;;5.79;69.14
35489;BME280;21602;55.670;37.578;2023-10-08T08:50:17;96039.94;;;5.66;68.46
35489;BME280;21602;55.670;37.578;2023-10-08T08:52:51;96028.56;;;5.65;68.38
35489;BME280;21602;55.670;37.578;2023-10-08T08:55:18;96034.84;;;5.70;68.59
35489;BME280;21602;55.670;37.578;2023-10-08T08:57:50;96023.28;;;5.65;67.71
35489;BME280;21602;55.670;37.578;2023-10-08T09:00:20;96030.16;;;5.67;67.58
35489;BME280;21602;55.670;37.578;2023-10-08T09:02:47;96043.09;;;5.68;67.85
35489;BME280;21602;55.670;37.578;2023-10-08T09:05:13;96041.31;;;5.82;68.26
35489;BME280;21602;55.670;37.578;2023-10-08T09:07:59;96041.78;;;5.89;67.63
35489;BME280;21602;55.670;37.578;2023-10-08T09:10:29;96037.00;;;5.68;67.44
35489;BME280;21602;55.670;37.578;2023-10-08T09:12:56;96039.78;;;5.57;68.17
35489;BME280;21602;55.670;37.578;2023-10-08T09:15:25;96042.72;;;5.56;68.03
35489;BME280;21602;55.670;37.578;2023-10-08T09:17:53;96062.63;;;5.48;67.82
35489;BME280;21602;55.670;37.578;2023-10-08T09:20:20;96054.19;;;5.46;67.71
35489;BME280;21602;55.670;37.578;2023-10-08T09:23:07;96043.25;;;5.53;67.06
35489;BME280;21602;55.670;37.578;2023-10-08T09:25:39;96057.75;;;5.60;67.55
35489;BME280;21602;55.670;37.578;2023-10-08T09:28:06;96057.03;;;5.50;67.23
35489;BME280;21602;55.670;37.578;2023-10-08T09:30:35;96026.78;;;5.61;67.75
35489;BME280;21602;55.670;37.578;2023-10-08T09:33:11;96048.16;;;5.40;67.49
35489;BME280;21602;55.670;37.578;2023-10-08T09:35:45;96055.28;;;5.40;68.61
35489;BME280;21602;55.670;37.578;2023-10-08T09:38:12;96073.50;;;5.47;68.89
35489;BME280;21602;55.670;37.578;2023-10-08T09:40:43;96076.53;;;5.59;68.83
35489;BME280;21602;55.670;37.578;2023-10-08T09:43:12;96087.69;;;5.80;68.51
35489;BME280;21602;55.670;37.578;2023-10-08T09:45:52;96077.66;;;5.77;67.54
35489;BME280;21602;55.670;37.578;2023-10-08T09:48:20;96074.53;;;5.46;68.11
35489;BME280;21602;55.670;37.578;2023-10-08T09:50:48;96062.78;;;5.33;68.21
35489;BME280;21602;55.670;37.578;2023-10-08T09:53:18;96081.72;;;5.16;69.13
35489;BME280;21602;55.670;37.578;2023-10-08T09:55:55;96083.47;;;5.26;69.54
35489;BME280;21602;55.670;37.578;2023-10-08T09:58:22;96080.19;;;5.39;69.66
35489;BME280;21602;55.670;37.578;2023-10-08T10:00:52;96085.19;;;5.40;69.63
35489;BME280;21602;55.670;37.578;2023-10-08T10:03:20;96086.53;;;5.38;69.98
35489;BME280;21602;55.670;37.578;2023-10-08T10:05:49;96088.25;;;5.24;70.15
35489;BME280;21602;55.670;37.578;2023-10-08T10:08:17;96091.88;;;5.33;70.40
35489;BME280;21602;55.670;37.578;2023-10-08T10:10:45;96091.88;;;5.33;71.03
35489;BME280;21602;55.670;37.578;2023-10-08T10:13:16;96090.25;;;5.37;71.61
35489;BME280;21602;55.670;37.578;2023-10-08T10:15:43;96075.66;;;5.39;71.93
35489;BME280;21602;55.670;37.578;2023-10-08T10:18:27;96088.16;;;5.34;71.40
35489;BME280;21602;55.670;37.578;2023-10-08T10:20:58;96089.22;;;5.33;72.07
35489;BME280;21602;55.670;37.578;2023-10-08T10:23:43;96090.56;;;5.30;72.29
35489;BME280;21602;55.670;37.578;2023-10-08T10:26:33;96099.63;;;5.24;73.07
35489;BME280;21602;55.670;37.578;2023-10-08T10:31:43;96085.97;;;5.12;74.46
35489;BME280;21602;55.670;37.578;2023-10-08T10:34:11;96092.72;;;4.99;75.93
35489;BME280;21602;55.670;37.578;2023-10-08T10:36:39;96100.94;;;4.93;76.09
35489;BME280;21602;55.670;37.578;2023-10-08T10:39:06;96097.00;;;4.90;77.47
35489;BME280;21602;55.670;37.578;2023-10-08T10:41:46;96096.09;;;4.71;78.70
35489;BME280;21602;55.670;37.578;2023-10-08T10:44:16;96103.03;;;4.61;79.85
35489;BME280;21602;55.670;37.578;2023-10-08T10:46:44;96108.56;;;4.60;79.76
35489;BME280;21602;55.670;37.578;2023-10-08T10:49:21;96098.00;;;4.60;80.47
35489;BME280;21602;55.670;37.578;2023-10-08T10:51:48;96114.41;;;4.57;82.06
35489;BME280;21602;55.670;37.578;2023-10-08T10:54:27;96133.16;;;4.55;81.42
35489;BME280;21602;55.670;37.578;2023-10-08T10:57:02;96130.03;;;4.48;82.13
35489;BME280;21602;55.670;37.578;2023-10-08T10:59:34;96139.03;;;4.47;82.62
35489;BME280;21602;55.670;37.578;2023-10-08T11:02:05;96122.44;;;4.42;82.73
35489;BME280;21602;55.670;37.578;2023-10-08T11:04:35;96115.53;;;4.46;83.07
35489;BME280;21602;55.670;37.578;2023-10-08T11:07:19;96122.25;;;4.28;84.68
35489;BME280;21602;55.670;37.578;2023-10-08T11:09:47;96123.88;;;4.19;84.87
35489;BME280;21602;55.670;37.578;2023-10-08T11:12:14;96132.88;;;4.07;86.45
35489;BME280;21602;55.670;37.578;2023-10-08T11:14:47;96141.84;;;4.06;86.07
35489;BME280;21602;55.670;37.578;2023-10-08T11:17:17;96134.00;;;3.91;87.58
35489;BME280;21602;55.670;37.578;2023-10-08T11:19:46;96139.00;;;3.93;86.67
35489;BME280;21602;55.670;37.578;2023-10-08T11:22:13;96133.25;;;3.75;88.41
35489;BME280;21602;55.670;37.578;2023-10-08T11:24:43;96142.75;;;3.71;88.69
35489;BME280;21602;55.670;37.578;2023-10-08T11:27:15;96140.66;;;3.68;89.07
35489;BME280;21602;55.670;37.578;2023-10-08T11:29:52;96140.38;;;3.65;89.75
35489;BME280;21602;55.670;37.578;2023-10-08T11:32:24;96132.50;;;3.59;90.18
35489;BME280;21602;55.670;37.578;2023-10-08T11:35:01;96128.25;;;3.64;90.28
35489;BME280;21602;55.670;37.578;2023-10-08T11:37:46;96124.03;;;3.68;90.49
35489;BME280;21602;55.670;37.578;2023-10-08T11:40:24;96121.41;;;3.63;91.02
35489;BME280;21602;55.670;37.578;2023-10-08T11:43:15;96126.16;;;3.55;90.32
35489;BME280;21602;55.670;37.578;2023-10-08T11:45:44;96117.22;;;3.56;91.14
35489;BME280;21602;55.670;37.578;2023-10-08T11:48:16;96131.44;;;3.55;91.53
35489;BME280;21602;55.670;37.578;2023-10-08T11:50:54;96123.50;;;3.60;91.74
35489;BME280;21602;55.670;37.578;2023-10-08T11:53:23;96121.16;;;3.59;91.68
35489;BME280;21602;55.670;37.578;2023-10-08T11:55:50;96135.13;;;3.65;91.26
35489;BME280;21602;55.670;37.578;2023-10-08T11:58:22;96122.97;;;3.69;91.52
35489;BME280;21602;55.670;37.578;2023-10-08T12:01:08;96130.38;;;3.67;91.76
35489;BME280;21602;55.670;37.578;2023-10-08T12:03:40;96135.94;;;3.55;91.88
35489;BME280;21602;55.670;37.578;2023-10-08T12:06:10;96124.63;;;3.44;92.44
35489;BME280;21602;55.670;37.578;2023-10-08T12:08:45;96143.06;;;3.44;93.17
35489;BME280;21602;55.670;37.578;2023-10-08T12:11:32;96137.78;;;3.49;92.72
35489;BME280;21602;55.670;37.578;2023-10-08T12:13:59;96127.75;;;3.46;93.45
35489;BME280;21602;55.670;37.578;2023-10-08T12:16:26;96133.03;;;3.56;93.09
35489;BME280;21602;55.670;37.578;2023-10-08T12:18:56;96127.75;;;3.56;92.98
35489;BME280;21602;55.670;37.578;2023-10-08T12:21:26;96134.63;;;3.57;92.88
35489;BME280;21602;55.670;37.578;2023-10-08T12:23:57;96132.50;;;3.54;92.69
35489;BME280;21602;55.670;37.578;2023-10-08T12:26:24;96137.50;;;3.56;93.08
35489;BME280;21602;55.670;37.578;2023-10-08T12:28:52;96127.50;;;3.53;93.39
35489;BME280;21602;55.670;37.578;2023-10-08T12:31:21;96130.66;;;3.55;93.33
35489;BME280;21602;55.670;37.578;2023-10-08T12:33:55;96132.78;;;3.53;93.30
35489;BME280;21602;55.670;37.578;2023-10-08T12:36:26;96141.97;;;3.55;93.11
35489;BME280;21602;55.670;37.578;2023-10-08T12:38:58;96132.50;;;3.54;93.05
35489;BME280;21602;55.670;37.578;2023-10-08T12:41:26;96130.94;;;3.53;92.72
35489;BME280;21602;55.670;37.578;2023-10-08T12:43:57;96127.75;;;3.56;93.01
35489;BME280;21602;55.670;37.578;2023-10-08T12:46:24;96135.13;;;3.54;93.36
35489;BME280;21602;55.670;37.578;2023-10-08T12:48:53;96128.28;;;3.53;93.29
35489;BME280;21602;55.670;37.578;2023-10-08T12:51:22;96120.88;;;3.55;93.78
35489;BME280;21602;55.670;37.578;2023-10-08T12:53:53;96124.06;;;3.63;93.57
35489;BME280;21602;55.670;37.578;2023-10-08T12:56:37;96123.53;;;3.66;93.43
35489;BME280;21602;55.670;37.578;2023-10-08T12:59:15;96139.34;;;3.60;93.20
35489;BME280;21602;55.670;37.578;2023-10-08T13:01:47;96069.47;;;3.53;93.49
35489;BME280;21602;55.670;37.578;2023-10-08T13:04:20;96140.41;;;3.54;93.31
35489;BME280;21602;55.670;37.578;2023-10-08T13:07:01;96144.13;;;3.53;93.91
35489;BME280;21602;55.670;37.578;2023-10-08T13:09:30;96129.88;;;3.54;93.79
35489;BME280;21602;55.670;37.578;2023-10-08T13:12:03;96134.34;;;3.54;94.30
35489;BME280;21602;55.670;37.578;2023-10-08T13:14:30;96132.00;;;3.47;93.94
35489;BME280;21602;55.670;37.578;2023-10-08T13:16:56;96146.50;;;3.45;94.56
35489;BME280;21602;55.670;37.578;2023-10-08T13:19:22;96143.34;;;3.43;94.10
35489;BME280;21602;55.670;37.578;2023-10-08T13:21:52;96145.19;;;3.42;94.30
35489;BME280;21602;55.670;37.578;2023-10-08T13:24:22;96143.09;;;3.29;94.48
35489;BME280;21602;55.670;37.578;2023-10-08T13:26:49;96136.22;;;3.18;94.50
35489;BME280;21602;55.670;37.578;2023-10-08T13:29:16;96142.56;;;3.12;94.72